Time;durP1;ratioP1;P1;durP2;ratioP2;P2;SDS_P1;SDS_P2;PMS_P1;PMS_P2;Temp;Humidity;BMP_temperature;BMP_pressure;BME280_temperature;BME280_humidity;BME280_pressure;Samples;Min_cycle;Max_cycle;Signal;HPM_P1;HPM_P2
2023/02/09 00:01:08;;;;;;;35.40;23.43;;;;;;;;;;4351415;32;326552;-88
2023/02/09 00:03:36;;;;;;;30.67;20.90;;;;;;;;;;4359917;32;351801;-88
2023/02/09 00:06:06;;;;;;;34.33;23.10;;;;;;;;;;4350368;32;318326;-88
2023/02/09 00:08:35;;;;;;;25.23;17.67;;;;;;;;;;4360035;32;318263;-88
2023/02/09 00:11:06;;;;;;;26.13;15.70;;;;;;;;;;4350222;32;317636;-89
2023/02/09 00:13:32;;;;;;;24.00;15.07;;;;;;;;;;4361005;32;318091;-88
2023/02/09 00:16:01;;;;;;;17.87;12.43;;;;;;;;;;4360315;32;317378;-87
2023/02/09 00:18:29;;;;;;;20.63;15.13;;;;;;;;;;4347945;32;420423;-87
2023/02/09 00:20:57;;;;;;;25.93;18.97;;;;;;;;;;4359730;32;318341;-87
2023/02/09 00:23:26;;;;;;;28.13;18.73;;;;;;;;;;4350837;32;317761;-87
2023/02/09 00:25:54;;;;;;;28.37;17.80;;;;;;;;;;4359771;32;317539;-87
2023/02/09 00:28:22;;;;;;;27.17;16.23;;;;;;;;;;4351748;32;318104;-87
2023/02/09 00:30:49;;;;;;;53.03;36.77;;;;;;;;;;4369759;32;317578;-88
2023/02/09 00:33:16;;;;;;;46.23;31.27;;;;;;;;;;4361846;32;316929;-87
2023/02/09 00:35:43;;;;;;;40.00;26.60;;;;;;;;;;4366071;32;317318;-88
2023/02/09 00:38:11;;;;;;;35.63;25.17;;;;;;;;;;4355299;32;318381;-87
2023/02/09 00:40:40;;;;;;;33.33;23.13;;;;;;;;;;4365236;32;318599;-87
2023/02/09 00:43:08;;;;;;;29.93;19.30;;;;;;;;;;4350971;32;318422;-87
2023/02/09 00:45:35;;;;;;;30.13;18.80;;;;;;;;;;4359992;32;318288;-87
2023/02/09 00:48:02;;;;;;;31.23;17.10;;;;;;;;;;4350093;32;317802;-87
2023/02/09 00:50:29;;;;;;;30.97;17.70;;;;;;;;;;4359671;32;318187;-86
2023/02/09 00:52:56;;;;;;;28.35;15.90;;;;;;;;;;4359748;32;317724;-87
2023/02/09 00:55:23;;;;;;;29.13;17.60;;;;;;;;;;4349435;32;318812;-87
2023/02/09 00:57:51;;;;;;;24.80;14.77;;;;;;;;;;4358975;32;318709;-88
2023/02/09 01:00:19;;;;;;;25.13;14.97;;;;;;;;;;4349185;32;318018;-87
2023/02/09 01:02:46;;;;;;;25.27;15.17;;;;;;;;;;4359844;32;318214;-87
2023/02/09 01:05:12;;;;;;;33.53;17.03;;;;;;;;;;4347903;32;318403;-87
2023/02/09 01:07:39;;;;;;;30.57;17.50;;;;;;;;;;4358251;32;319274;-88
2023/02/09 01:10:07;;;;;;;43.60;21.47;;;;;;;;;;4349057;32;318332;-87
2023/02/09 01:12:34;;;;;;;48.43;24.93;;;;;;;;;;4360182;32;318455;-87
2023/02/09 01:15:02;;;;;;;49.23;25.00;;;;;;;;;;4348715;32;318331;-87
2023/02/09 01:17:29;;;;;;;53.63;26.87;;;;;;;;;;4358252;32;318324;-87
2023/02/09 01:19:56;;;;;;;46.67;23.93;;;;;;;;;;4357932;32;318812;-87
2023/02/09 01:22:26;;;;;;;42.87;22.87;;;;;;;;;;4348801;32;318364;-87
2023/02/09 01:24:53;;;;;;;37.97;23.47;;;;;;;;;;4358993;32;317857;-87
2023/02/09 01:27:20;;;;;;;40.97;22.43;;;;;;;;;;4347620;32;321174;-87
2023/02/09 01:29:47;;;;;;;42.57;19.67;;;;;;;;;;4366266;32;317470;-88
2023/02/09 01:32:15;;;;;;;36.87;19.43;;;;;;;;;;4361116;32;318265;-86
2023/02/09 01:34:42;;;;;;;39.30;20.17;;;;;;;;;;4365409;32;317604;-87
2023/02/09 01:37:09;;;;;;;45.27;23.30;;;;;;;;;;4361915;32;317138;-87
2023/02/09 01:39:36;;;;;;;34.27;18.40;;;;;;;;;;4371044;32;318007;-88
2023/02/09 01:42:03;;;;;;;30.87;18.90;;;;;;;;;;4360140;32;318098;-87
2023/02/09 01:45:06;;;;;;;25.37;13.80;;;;;;;;;;4366181;32;318036;-87
2023/02/09 01:47:44;;;;;;;25.97;13.50;;;;;;;;;;4356398;32;418139;-87
2023/02/09 01:50:11;;;;;;;37.40;21.17;;;;;;;;;;4351791;32;318383;-88
2023/02/09 01:52:39;;;;;;;34.73;21.80;;;;;;;;;;4357995;32;318613;-87
2023/02/09 01:55:11;;;;;;;31.07;20.07;;;;;;;;;;4349180;32;319183;-86
2023/02/09 01:57:42;;;;;;;27.27;16.73;;;;;;;;;;4358635;32;319507;-87
2023/02/09 02:00:11;;;;;;;26.40;15.17;;;;;;;;;;4347820;32;318864;-87
2023/02/09 02:02:41;;;;;;;27.73;16.07;;;;;;;;;;4359100;32;319771;-86
2023/02/09 02:05:08;;;;;;;29.17;16.33;;;;;;;;;;4349021;32;319463;-87
2023/02/09 02:07:40;;;;;;;26.53;14.77;;;;;;;;;;4359265;32;319414;-87
2023/02/09 02:10:08;;;;;;;25.90;14.50;;;;;;;;;;4346781;32;320888;-87
2023/02/09 02:12:36;;;;;;;20.90;13.43;;;;;;;;;;4359144;32;318726;-88
2023/02/09 02:15:03;;;;;;;22.73;14.00;;;;;;;;;;4349186;32;319610;-87
2023/02/09 02:17:40;;;;;;;23.73;14.73;;;;;;;;;;4359296;32;319625;-87
2023/02/09 02:23:31;;;;;;;41.67;28.10;;;;;;;;;;4460556;31;20272;-84
2023/02/09 02:26:30;;;;;;;36.70;25.23;;;;;;;;;;4429900;32;316552;-84
2023/02/09 02:29:34;;;;;;;35.70;20.50;;;;;;;;;;4423211;32;420692;-85
2023/02/09 02:32:27;;;;;;;25.50;14.57;;;;;;;;;;4423217;32;418666;-85
2023/02/09 02:35:02;;;;;;;21.30;12.67;;;;;;;;;;4415472;32;421130;-83
2023/02/09 02:37:42;;;;;;;19.30;11.57;;;;;;;;;;4414175;32;419455;-85
2023/02/09 02:40:22;;;;;;;24.93;12.77;;;;;;;;;;4419775;32;318782;-84
2023/02/09 02:42:55;;;;;;;19.20;11.93;;;;;;;;;;4425842;32;318672;-85
2023/02/09 02:45:33;;;;;;;20.53;12.80;;;;;;;;;;4418739;32;318602;-85
2023/02/09 02:48:12;;;;;;;23.10;12.23;;;;;;;;;;4416171;32;318838;-85
2023/02/09 02:50:45;;;;;;;25.13;12.70;;;;;;;;;;4428000;32;318613;-85
2023/02/09 02:53:15;;;;;;;21.03;12.47;;;;;;;;;;4418367;32;318688;-85
2023/02/09 02:55:44;;;;;;;16.80;11.33;;;;;;;;;;4428277;32;318711;-85
2023/02/09 02:58:15;;;;;;;18.73;12.17;;;;;;;;;;4410282;32;318775;-83
2023/02/09 03:00:47;;;;;;;18.77;12.27;;;;;;;;;;4413814;32;318917;-84
2023/02/09 03:03:19;;;;;;;18.63;14.43;;;;;;;;;;4401712;32;318846;-85
2023/02/09 03:05:49;;;;;;;73.70;33.43;;;;;;;;;;4415967;32;318555;-83
2023/02/09 03:08:16;;;;;;;42.57;23.27;;;;;;;;;;4411782;32;317372;-83
2023/02/09 03:10:44;;;;;;;75.50;31.87;;;;;;;;;;4424509;32;318963;-84
2023/02/09 03:13:46;;;;;;;37.00;19.40;;;;;;;;;;4412397;32;318514;-83
2023/02/09 03:17:02;;;;;;;142.47;56.87;;;;;;;;;;4380208;32;318879;-83
2023/02/09 03:19:41;;;;;;;60.17;27.00;;;;;;;;;;4389162;32;421766;-84
2023/02/09 03:22:16;;;;;;;25.97;14.50;;;;;;;;;;4386172;32;318820;-84
2023/02/09 03:24:53;;;;;;;20.23;12.00;;;;;;;;;;4418099;32;317281;-84
2023/02/09 03:27:25;;;;;;;25.50;11.70;;;;;;;;;;4395966;32;318936;-83
2023/02/09 03:29:59;;;;;;;87.50;30.37;;;;;;;;;;4404909;32;318418;-84
2023/02/09 03:32:28;;;;;;;47.90;22.37;;;;;;;;;;4388233;32;419031;-85
2023/02/09 03:34:58;;;;;;;122.57;48.37;;;;;;;;;;4391243;32;318515;-84
2023/02/09 03:37:26;;;;;;;131.33;45.37;;;;;;;;;;4390209;32;419971;-84
2023/02/09 03:39:53;;;;;;;77.13;31.60;;;;;;;;;;4402098;32;319288;-85
2023/02/09 03:42:21;;;;;;;51.83;24.50;;;;;;;;;;4392541;32;318774;-85
2023/02/09 03:44:50;;;;;;;77.33;28.77;;;;;;;;;;4414671;32;318716;-85
2023/02/09 03:47:17;;;;;;;110.47;41.73;;;;;;;;;;4421640;26;318670;-87
2023/02/09 03:49:44;;;;;;;71.37;26.00;;;;;;;;;;4404638;32;319616;-87
2023/02/09 03:52:14;;;;;;;35.67;16.60;;;;;;;;;;4393839;32;319411;-88
2023/02/09 03:54:41;;;;;;;32.57;15.33;;;;;;;;;;4404739;32;319237;-87
2023/02/09 03:57:09;;;;;;;36.30;16.87;;;;;;;;;;4394324;32;319281;-87
2023/02/09 03:59:36;;;;;;;32.67;14.93;;;;;;;;;;4405567;32;320246;-87
2023/02/09 04:02:05;;;;;;;37.13;16.90;;;;;;;;;;4399371;32;319351;-88
2023/02/09 04:04:32;;;;;;;37.37;16.93;;;;;;;;;;4408763;32;318475;-87
2023/02/09 04:06:59;;;;;;;29.53;15.90;;;;;;;;;;4411752;32;318361;-88
2023/02/09 04:09:28;;;;;;;24.83;13.23;;;;;;;;;;4400774;32;418638;-88
2023/02/09 04:11:55;;;;;;;25.33;14.67;;;;;;;;;;4413389;32;318333;-87
2023/02/09 04:14:23;;;;;;;25.83;14.67;;;;;;;;;;4398780;32;319142;-87
2023/02/09 04:16:49;;;;;;;27.03;15.27;;;;;;;;;;4402435;32;355445;-88
2023/02/09 04:19:16;;;;;;;23.63;13.90;;;;;;;;;;4394271;32;319339;-87
2023/02/09 04:21:43;;;;;;;21.20;13.17;;;;;;;;;;4405300;32;318756;-88
2023/02/09 04:24:10;;;;;;;19.10;12.60;;;;;;;;;;4394467;32;319183;-87
2023/02/09 04:26:38;;;;;;;23.57;13.23;;;;;;;;;;4403384;32;319484;-88
2023/02/09 04:29:05;;;;;;;30.60;14.40;;;;;;;;;;4394307;32;319148;-88
2023/02/09 04:31:33;;;;;;;36.93;19.23;;;;;;;;;;4404931;32;318542;-88
2023/02/09 04:34:00;;;;;;;84.17;41.27;;;;;;;;;;4394225;32;319149;-88
2023/02/09 04:36:27;;;;;;;57.07;27.30;;;;;;;;;;4404918;32;319065;-87
2023/02/09 04:38:54;;;;;;;45.50;23.37;;;;;;;;;;4414118;32;319069;-85
2023/02/09 04:41:21;;;;;;;45.23;22.70;;;;;;;;;;4402240;32;319025;-87
2023/02/09 04:43:49;;;;;;;38.23;20.63;;;;;;;;;;4413050;32;352121;-87
2023/02/09 04:46:17;;;;;;;42.87;22.27;;;;;;;;;;4402850;32;318799;-87
2023/02/09 04:48:45;;;;;;;32.70;20.10;;;;;;;;;;4407983;32;319743;-88
2023/02/09 04:51:13;;;;;;;44.57;24.47;;;;;;;;;;4396999;32;319035;-88
2023/02/09 04:53:39;;;;;;;42.13;22.97;;;;;;;;;;4406670;32;337536;-87
2023/02/09 04:56:07;;;;;;;43.47;23.43;;;;;;;;;;4395199;32;319369;-88
2023/02/09 05:01:21;;;;;;;63.27;37.53;;;;;;;;;;4393919;32;331477;-87
2023/02/09 05:03:48;;;;;;;54.73;29.97;;;;;;;;;;4404490;32;319256;-87
2023/02/09 05:06:15;;;;;;;27.27;17.80;;;;;;;;;;4392345;32;318877;-87
2023/02/09 05:08:43;;;;;;;37.13;21.50;;;;;;;;;;4404365;32;318518;-89
2023/02/09 05:11:10;;;;;;;34.43;20.53;;;;;;;;;;4394003;32;318581;-88
2023/02/09 05:13:37;;;;;;;53.07;26.23;;;;;;;;;;4403002;32;319156;-88
2023/02/09 05:16:06;;;;;;;50.30;25.80;;;;;;;;;;4394736;32;318510;-88
2023/02/09 05:18:35;;;;;;;54.10;30.13;;;;;;;;;;4416055;32;318981;-87
2023/02/09 05:21:02;;;;;;;69.90;36.73;;;;;;;;;;4406146;32;319111;-88
2023/02/09 05:23:29;;;;;;;90.83;44.77;;;;;;;;;;4418693;32;317364;-88
2023/02/09 05:25:56;;;;;;;85.10;44.33;;;;;;;;;;4417483;32;317246;-87
2023/02/09 05:28:23;;;;;;;81.60;44.37;;;;;;;;;;4395004;32;319503;-87
2023/02/09 05:30:52;;;;;;;82.50;42.37;;;;;;;;;;4404237;32;318782;-87
2023/02/09 05:33:19;;;;;;;111.87;62.03;;;;;;;;;;4393172;32;319487;-88
2023/02/09 05:35:47;;;;;;;129.13;63.07;;;;;;;;;;4403712;32;320313;-87
2023/02/09 05:38:14;;;;;;;108.77;58.77;;;;;;;;;;4394588;32;320327;-87
2023/02/09 05:40:41;;;;;;;117.17;60.90;;;;;;;;;;4404103;32;319890;-88
2023/02/09 05:43:08;;;;;;;117.23;61.60;;;;;;;;;;4392991;32;320469;-86
2023/02/09 05:45:35;;;;;;;110.80;63.23;;;;;;;;;;4404088;32;320396;-86
2023/02/09 05:48:02;;;;;;;124.17;64.97;;;;;;;;;;4392538;32;319795;-87
2023/02/09 05:50:29;;;;;;;110.57;60.57;;;;;;;;;;4402570;32;319834;-91
2023/02/09 05:52:59;;;;;;;117.83;63.50;;;;;;;;;;4403803;32;319618;-86
2023/02/09 05:55:26;;;;;;;123.57;66.33;;;;;;;;;;4374532;32;421980;-87
2023/02/09 05:57:53;;;;;;;116.77;65.37;;;;;;;;;;4397658;32;320571;-87
2023/02/09 06:00:20;;;;;;;113.18;62.13;;;;;;;;;;4393824;32;348556;-87
2023/02/09 06:02:47;;;;;;;122.17;60.63;;;;;;;;;;4412811;32;319558;-86
2023/02/09 06:05:14;;;;;;;111.33;63.33;;;;;;;;;;4400983;32;319245;-85
2023/02/09 06:07:41;;;;;;;170.67;85.97;;;;;;;;;;4408810;32;320380;-86
2023/02/09 06:10:10;;;;;;;171.33;91.67;;;;;;;;;;4398235;32;325671;-86
2023/02/09 06:12:37;;;;;;;169.60;88.37;;;;;;;;;;4407806;32;359038;-86
2023/02/09 06:15:04;;;;;;;161.90;88.83;;;;;;;;;;4396143;32;320825;-87
2023/02/09 06:17:31;;;;;;;155.83;79.93;;;;;;;;;;4405018;32;320575;-85
2023/02/09 06:19:58;;;;;;;146.67;76.47;;;;;;;;;;4401766;32;320321;-86
2023/02/09 06:22:24;;;;;;;146.97;75.60;;;;;;;;;;4391360;32;360756;-86
2023/02/09 06:24:54;;;;;;;148.77;78.67;;;;;;;;;;4402591;32;319713;-85
2023/02/09 06:27:23;;;;;;;142.10;72.33;;;;;;;;;;4393371;32;320487;-85
2023/02/09 06:29:49;;;;;;;151.97;71.17;;;;;;;;;;4402817;32;319614;-86
2023/02/09 06:32:16;;;;;;;182.40;86.53;;;;;;;;;;4393820;32;320441;-86
2023/02/09 06:34:43;;;;;;;149.20;73.20;;;;;;;;;;4402293;32;320866;-85
2023/02/09 06:37:10;;;;;;;114.80;66.73;;;;;;;;;;4390225;32;351227;-86
2023/02/09 06:39:36;;;;;;;124.83;69.53;;;;;;;;;;4402909;32;320431;-87
2023/02/09 06:42:03;;;;;;;113.87;59.00;;;;;;;;;;4392443;32;320430;-85
2023/02/09 06:44:32;;;;;;;117.53;60.97;;;;;;;;;;4402991;32;319606;-85
2023/02/09 06:46:58;;;;;;;110.63;56.20;;;;;;;;;;4392492;32;319636;-86
2023/02/09 06:49:25;;;;;;;101.27;54.10;;;;;;;;;;4384787;32;320592;-85
2023/02/09 06:51:52;;;;;;;106.50;58.20;;;;;;;;;;4403069;32;320195;-85
2023/02/09 06:54:19;;;;;;;127.37;61.50;;;;;;;;;;4392825;32;320337;-86
2023/02/09 06:56:46;;;;;;;126.63;73.63;;;;;;;;;;4403017;32;320869;-85
2023/02/09 06:59:13;;;;;;;146.57;82.53;;;;;;;;;;4394488;32;320418;-85
2023/02/09 07:01:44;;;;;;;164.00;83.97;;;;;;;;;;4415354;32;319681;-86
2023/02/09 07:04:10;;;;;;;151.83;86.17;;;;;;;;;;4403632;32;319519;-87
2023/02/09 07:06:37;;;;;;;137.37;80.67;;;;;;;;;;4406828;32;319803;-86
2023/02/09 07:09:04;;;;;;;216.47;109.33;;;;;;;;;;4389707;32;319350;-87
2023/02/09 07:11:31;;;;;;;201.23;107.43;;;;;;;;;;4409028;32;321084;-87
2023/02/09 07:13:58;;;;;;;188.63;100.73;;;;;;;;;;4407357;32;320853;-86
2023/02/09 07:16:24;;;;;;;192.37;96.47;;;;;;;;;;4398134;32;321550;-86
2023/02/09 07:18:53;;;;;;;189.77;100.33;;;;;;;;;;4407027;32;320077;-86
2023/02/09 07:21:20;;;;;;;192.37;101.87;;;;;;;;;;4399797;32;321623;-87
2023/02/09 07:23:47;;;;;;;200.13;110.00;;;;;;;;;;4407003;32;331117;-86
2023/02/09 07:26:16;;;;;;;204.83;106.97;;;;;;;;;;4397365;32;320475;-86
2023/02/09 07:28:43;;;;;;;211.17;107.63;;;;;;;;;;4406579;32;321302;-86
2023/02/09 07:31:12;;;;;;;216.40;108.60;;;;;;;;;;4394833;32;321490;-86
2023/02/09 07:33:39;;;;;;;166.67;90.07;;;;;;;;;;4405831;32;322137;-85
2023/02/09 07:36:09;;;;;;;146.97;80.03;;;;;;;;;;4395270;32;319687;-85
2023/02/09 07:38:37;;;;;;;146.83;81.27;;;;;;;;;;4404627;32;319628;-86
2023/02/09 07:41:05;;;;;;;146.93;84.83;;;;;;;;;;4393772;32;320641;-87
2023/02/09 07:43:32;;;;;;;152.43;82.93;;;;;;;;;;4404431;32;319847;-87
2023/02/09 07:46:00;;;;;;;171.80;90.50;;;;;;;;;;4405103;32;320553;-85
2023/02/09 07:48:27;;;;;;;140.67;79.83;;;;;;;;;;4395167;32;419634;-86
2023/02/09 07:50:54;;;;;;;264.33;142.87;;;;;;;;;;4405833;32;320523;-86
2023/02/09 07:53:23;;;;;;;152.20;87.60;;;;;;;;;;4394098;32;321469;-86
2023/02/09 07:55:50;;;;;;;143.27;78.33;;;;;;;;;;4404596;32;320522;-86
2023/02/09 07:58:19;;;;;;;130.63;70.37;;;;;;;;;;4393898;32;320357;-86
2023/02/09 08:00:45;;;;;;;135.67;69.80;;;;;;;;;;4404582;32;320384;-86
2023/02/09 08:03:14;;;;;;;110.07;62.60;;;;;;;;;;4395909;32;320279;-86
2023/02/09 08:05:46;;;;;;;103.17;55.63;;;;;;;;;;4416710;32;318963;-86
2023/02/09 08:08:13;;;;;;;105.60;54.57;;;;;;;;;;4408232;32;319426;-86
2023/02/09 08:10:42;;;;;;;101.80;59.93;;;;;;;;;;4411693;32;352739;-87
2023/02/09 08:13:09;;;;;;;68.63;39.30;;;;;;;;;;4394353;32;320266;-86
2023/02/09 08:15:40;;;;;;;54.33;34.67;;;;;;;;;;4403646;32;326355;-88
2023/02/09 08:18:11;;;;;;;39.70;22.13;;;;;;;;;;4394029;32;318550;-85
2023/02/09 08:20:38;;;;;;;40.77;21.90;;;;;;;;;;4404351;32;339431;-86
2023/02/09 08:23:09;;;;;;;45.30;24.23;;;;;;;;;;4391957;32;318242;-87
2023/02/09 08:25:37;;;;;;;48.93;30.00;;;;;;;;;;4404191;32;317604;-87
2023/02/09 08:28:07;;;;;;;89.43;49.00;;;;;;;;;;4394277;32;318212;-86
2023/02/09 08:30:34;;;;;;;88.63;50.17;;;;;;;;;;4405145;32;318648;-86
2023/02/09 08:33:02;;;;;;;84.93;44.23;;;;;;;;;;4394563;32;318362;-85
2023/02/09 08:35:29;;;;;;;77.33;39.77;;;;;;;;;;4402183;32;318233;-85
2023/02/09 08:38:01;;;;;;;56.33;31.77;;;;;;;;;;4404516;32;318283;-84
2023/02/09 08:40:29;;;;;;;59.03;30.93;;;;;;;;;;4376630;32;418531;-84
2023/02/09 08:42:55;;;;;;;47.60;27.17;;;;;;;;;;4390375;32;318300;-85
2023/02/09 08:45:24;;;;;;;64.57;37.20;;;;;;;;;;4376566;32;318069;-84
2023/02/09 08:47:51;;;;;;;62.33;39.67;;;;;;;;;;4387374;32;318316;-85
2023/02/09 08:50:18;;;;;;;48.87;24.20;;;;;;;;;;4380861;32;318164;-85
2023/02/09 08:52:45;;;;;;;45.27;26.43;;;;;;;;;;4389820;32;337469;-84
2023/02/09 08:55:12;;;;;;;41.40;25.77;;;;;;;;;;4381512;32;318216;-84
2023/02/09 08:57:39;;;;;;;32.87;19.77;;;;;;;;;;4388023;32;318411;-85
2023/02/09 09:00:06;;;;;;;33.43;18.63;;;;;;;;;;4379057;32;318183;-86
2023/02/09 09:02:34;;;;;;;29.93;18.40;;;;;;;;;;4387112;32;318459;-86
2023/02/09 09:05:01;;;;;;;29.97;17.87;;;;;;;;;;4382084;32;317517;-87
2023/02/09 09:07:28;;;;;;;32.07;18.63;;;;;;;;;;4388754;32;317579;-86
2023/02/09 09:09:55;;;;;;;37.37;21.87;;;;;;;;;;4390624;32;318245;-86
2023/02/09 09:12:21;;;;;;;35.60;18.93;;;;;;;;;;4381038;32;318549;-86
2023/02/09 09:14:48;;;;;;;25.53;15.27;;;;;;;;;;4389019;32;318048;-86
2023/02/09 09:17:15;;;;;;;32.57;18.10;;;;;;;;;;4376903;32;318269;-85
2023/02/09 09:19:43;;;;;;;33.37;18.70;;;;;;;;;;4386963;32;327933;-84
2023/02/09 09:22:10;;;;;;;37.47;20.30;;;;;;;;;;4377009;32;318192;-84
2023/02/09 09:24:39;;;;;;;42.17;22.27;;;;;;;;;;4388256;32;318250;-83
2023/02/09 09:27:07;;;;;;;31.00;17.57;;;;;;;;;;4376538;32;317690;-84
2023/02/09 09:29:34;;;;;;;26.33;15.63;;;;;;;;;;4387470;32;331372;-84
2023/02/09 09:32:01;;;;;;;22.03;13.17;;;;;;;;;;4376392;32;317596;-85
2023/02/09 09:34:28;;;;;;;21.90;11.67;;;;;;;;;;4386644;32;318484;-85
2023/02/09 09:36:57;;;;;;;16.87;11.47;;;;;;;;;;4386524;32;318256;-86
2023/02/09 09:39:24;;;;;;;16.57;10.90;;;;;;;;;;4377021;32;318263;-85
2023/02/09 09:41:54;;;;;;;16.30;10.07;;;;;;;;;;4387537;32;318259;-85
2023/02/09 09:44:28;;;;;;;15.67;9.33;;;;;;;;;;4376260;32;317848;-86
2023/02/09 09:46:59;;;;;;;16.07;9.60;;;;;;;;;;4386986;32;317345;-84
2023/02/09 09:49:29;;;;;;;18.40;9.77;;;;;;;;;;4374656;32;416115;-86
2023/02/09 09:52:01;;;;;;;20.93;10.37;;;;;;;;;;4388794;32;317286;-86
2023/02/09 09:54:31;;;;;;;15.90;9.70;;;;;;;;;;4375940;32;418041;-85
2023/02/09 09:56:59;;;;;;;14.30;8.67;;;;;;;;;;4404909;32;316223;-87
2023/02/09 09:59:30;;;;;;;14.87;9.70;;;;;;;;;;4379918;32;417369;-87
2023/02/09 10:02:01;;;;;;;19.80;9.57;;;;;;;;;;4402675;32;316427;-87
2023/02/09 10:04:28;;;;;;;13.77;8.23;;;;;;;;;;4376484;32;415860;-87
2023/02/09 10:07:01;;;;;;;18.07;9.87;;;;;;;;;;4391738;32;317035;-88
2023/02/09 10:09:37;;;;;;;27.17;15.83;;;;;;;;;;4381835;32;412477;-88
2023/02/09 10:12:15;;;;;;;24.33;15.63;;;;;;;;;;4390656;32;317984;-85
2023/02/09 10:14:42;;;;;;;20.27;13.13;;;;;;;;;;4401271;32;317247;-86
2023/02/09 10:17:09;;;;;;;21.20;11.10;;;;;;;;;;4388445;32;318052;-84
2023/02/09 10:19:36;;;;;;;21.47;12.73;;;;;;;;;;4391342;32;317314;-85
2023/02/09 10:22:04;;;;;;;20.93;11.97;;;;;;;;;;4377877;32;317424;-84
2023/02/09 10:24:35;;;;;;;19.30;10.17;;;;;;;;;;4388258;32;318188;-87
2023/02/09 10:27:06;;;;;;;14.60;9.27;;;;;;;;;;4379119;32;318225;-85
2023/02/09 10:29:35;;;;;;;14.00;8.43;;;;;;;;;;4388221;32;324568;-87
2023/02/09 10:32:06;;;;;;;14.00;9.60;;;;;;;;;;4378677;32;317222;-85
2023/02/09 10:34:42;;;;;;;24.13;11.17;;;;;;;;;;4388099;32;316320;-87
2023/02/09 10:37:35;;;;;;;19.77;9.33;;;;;;;;;;4377783;32;317497;-87
2023/02/09 10:40:12;;;;;;;16.90;8.60;;;;;;;;;;4378845;32;316632;-86
2023/02/09 10:42:43;;;;;;;16.93;9.23;;;;;;;;;;4387811;32;317407;-88
2023/02/09 10:45:21;;;;;;;15.70;9.93;;;;;;;;;;4383120;32;316644;-88
2023/02/09 10:47:58;;;;;;;16.70;10.67;;;;;;;;;;4397416;32;316721;-88
2023/02/09 10:50:25;;;;;;;18.97;11.90;;;;;;;;;;4396515;32;318239;-88
2023/02/09 10:52:59;;;;;;;13.00;9.17;;;;;;;;;;4406909;32;317518;-88
2023/02/09 10:55:29;;;;;;;13.40;8.90;;;;;;;;;;4394225;32;415957;-88
2023/02/09 10:58:12;;;;;;;13.00;9.20;;;;;;;;;;4408922;32;316410;-87
2023/02/09 11:00:48;;;;;;;13.20;8.50;;;;;;;;;;4393591;32;417371;-86
2023/02/09 11:03:18;;;;;;;13.53;8.20;;;;;;;;;;4396644;32;316801;-88
2023/02/09 11:05:52;;;;;;;16.13;9.47;;;;;;;;;;4407998;32;316617;-89
2023/02/09 11:08:22;;;;;;;16.87;8.83;;;;;;;;;;4397590;32;316965;-88
2023/02/09 11:10:58;;;;;;;13.73;9.20;;;;;;;;;;4404792;32;316518;-89
2023/02/09 11:13:26;;;;;;;22.43;10.50;;;;;;;;;;4393351;32;416047;-88
2023/02/09 11:16:19;;;;;;;17.00;10.00;;;;;;;;;;4407655;32;317251;-88
2023/02/09 11:18:52;;;;;;;17.30;11.77;;;;;;;;;;4386801;32;418264;-88
2023/02/09 11:21:30;;;;;;;18.70;11.00;;;;;;;;;;4394817;32;318318;-88
2023/02/09 11:24:06;;;;;;;13.07;8.77;;;;;;;;;;4404179;32;317568;-89
2023/02/09 11:26:42;;;;;;;13.77;9.10;;;;;;;;;;4392171;32;416933;-87
2023/02/09 11:29:21;;;;;;;15.10;10.67;;;;;;;;;;4395415;32;317123;-87
2023/02/09 11:32:04;;;;;;;17.50;8.60;;;;;;;;;;4406242;32;316470;-89
2023/02/09 11:34:44;;;;;;;19.73;9.87;;;;;;;;;;4392127;32;417916;-88
2023/02/09 11:37:22;;;;;;;15.13;10.53;;;;;;;;;;4395579;32;317111;-90
2023/02/09 11:39:57;;;;;;;13.07;8.67;;;;;;;;;;4404007;32;356386;-89
2023/02/09 11:42:46;;;;;;;12.53;8.17;;;;;;;;;;4396521;32;318105;-88
2023/02/09 11:45:19;;;;;;;13.97;9.73;;;;;;;;;;4396332;32;317011;-88
2023/02/09 11:47:54;;;;;;;10.70;8.40;;;;;;;;;;4406399;32;317272;-89
2023/02/09 11:50:27;;;;;;;14.17;8.63;;;;;;;;;;4394756;32;317403;-89
2023/02/09 11:52:59;;;;;;;16.87;9.33;;;;;;;;;;4405474;32;316959;-88
2023/02/09 11:55:31;;;;;;;17.83;9.20;;;;;;;;;;4392442;32;417550;-87
2023/02/09 11:58:08;;;;;;;15.17;8.90;;;;;;;;;;4405608;32;317105;-89
2023/02/09 12:00:44;;;;;;;10.90;7.57;;;;;;;;;;4392404;32;417287;-88
2023/02/09 12:03:13;;;;;;;16.77;9.90;;;;;;;;;;4396255;32;330025;-89
2023/02/09 12:05:44;;;;;;;17.90;10.10;;;;;;;;;;4406426;32;316508;-88
2023/02/09 12:08:32;;;;;;;13.97;8.47;;;;;;;;;;4395875;32;318308;-88
2023/02/09 12:11:15;;;;;;;31.07;15.47;;;;;;;;;;4403584;32;317193;-87
2023/02/09 12:13:55;;;;;;;13.67;8.47;;;;;;;;;;4391534;32;417726;-87
2023/02/09 12:16:24;;;;;;;20.40;11.90;;;;;;;;;;4395172;32;317216;-89
2023/02/09 12:18:54;;;;;;;14.53;9.80;;;;;;;;;;4403579;32;338459;-88
2023/02/09 12:21:31;;;;;;;8.57;7.00;;;;;;;;;;4393479;32;317331;-89
2023/02/09 12:23:58;;;;;;;15.90;10.37;;;;;;;;;;4404251;32;315404;-89
2023/02/09 12:26:42;;;;;;;18.60;11.67;;;;;;;;;;4394171;32;317796;-88
2023/02/09 12:29:27;;;;;;;20.37;11.50;;;;;;;;;;4394614;32;317892;-88
2023/02/09 12:32:29;;;;;;;22.33;13.40;;;;;;;;;;4402974;32;320558;-89
2023/02/09 12:34:56;;;;;;;17.53;10.70;;;;;;;;;;4401205;32;417513;-88
2023/02/09 12:37:25;;;;;;;19.17;13.23;;;;;;;;;;4394700;32;318300;-88
2023/02/09 12:40:18;;;;;;;18.70;11.57;;;;;;;;;;4405416;32;317403;-88
2023/02/09 12:43:05;;;;;;;16.80;10.10;;;;;;;;;;4390289;32;418445;-88
2023/02/09 12:45:38;;;;;;;27.40;14.50;;;;;;;;;;4391145;32;421071;-89
2023/02/09 12:48:13;;;;;;;20.30;13.37;;;;;;;;;;4393938;32;318214;-88
2023/02/09 12:50:50;;;;;;;20.97;11.53;;;;;;;;;;4403496;32;318145;-88
2023/02/09 12:53:45;;;;;;;17.70;10.77;;;;;;;;;;4393050;32;318415;-87
2023/02/09 12:56:33;;;;;;;19.20;10.67;;;;;;;;;;4391694;32;349557;-87
2023/02/09 12:59:19;;;;;;;15.63;9.87;;;;;;;;;;4401940;32;318202;-87
2023/02/09 13:02:14;;;;;;;27.40;16.90;;;;;;;;;;4391133;32;417116;-87
2023/02/09 13:04:54;;;;;;;22.20;13.97;;;;;;;;;;4392026;32;416585;-88
2023/02/09 13:07:35;;;;;;;17.37;10.03;;;;;;;;;;4394285;32;318132;-89
2023/02/09 13:10:15;;;;;;;12.80;9.30;;;;;;;;;;4394977;32;341068;-92
2023/02/09 13:12:48;;;;;;;13.80;8.53;;;;;;;;;;4404761;32;316380;-92
2023/02/09 13:15:19;;;;;;;11.47;7.60;;;;;;;;;;4394901;32;316951;-89
2023/02/09 13:18:00;;;;;;;11.20;7.10;;;;;;;;;;4403842;32;317007;-89
2023/02/09 13:20:39;;;;;;;10.17;8.03;;;;;;;;;;4392633;32;417476;-90
2023/02/09 13:23:27;;;;;;;16.43;8.47;;;;;;;;;;4394547;32;316635;-89
2023/02/09 13:26:00;;;;;;;16.00;8.30;;;;;;;;;;4406689;32;317148;-92
2023/02/09 13:28:27;;;;;;;14.57;8.83;;;;;;;;;;4395216;32;418802;-90
2023/02/09 13:30:55;;;;;;;26.93;9.67;;;;;;;;;;4405897;32;316665;-90
2023/02/09 13:33:33;;;;;;;19.70;12.60;;;;;;;;;;4395982;32;316617;-89
2023/02/09 13:36:13;;;;;;;28.03;10.70;;;;;;;;;;4406791;32;318265;-90
2023/02/09 13:38:41;;;;;;;13.60;7.57;;;;;;;;;;4395339;32;415211;-91
2023/02/09 13:41:23;;;;;;;13.00;8.47;;;;;;;;;;4399676;32;317109;-88
2023/02/09 13:43:50;;;;;;;16.60;9.23;;;;;;;;;;4404074;32;316865;-92
2023/02/09 13:46:25;;;;;;;13.33;7.87;;;;;;;;;;4394635;32;316514;-90
2023/02/09 13:48:52;;;;;;;35.00;13.30;;;;;;;;;;4404224;32;330033;-90
2023/02/09 13:51:22;;;;;;;14.60;9.37;;;;;;;;;;4394429;32;317679;-89
2023/02/09 13:53:57;;;;;;;15.67;7.80;;;;;;;;;;4405645;32;317696;-92
2023/02/09 13:56:24;;;;;;;30.30;8.77;;;;;;;;;;4394726;32;317191;-92
2023/02/09 13:58:51;;;;;;;14.17;7.47;;;;;;;;;;4403277;32;316495;-90
2023/02/09 14:01:30;;;;;;;9.97;6.37;;;;;;;;;;4393732;32;316888;-90
2023/02/09 14:04:02;;;;;;;14.07;7.17;;;;;;;;;;4402631;32;315663;-90
2023/02/09 14:06:34;;;;;;;19.33;6.97;;;;;;;;;;4389811;32;414322;-91
2023/02/09 14:09:04;;;;;;;19.83;9.13;;;;;;;;;;4393112;32;379764;-91
2023/02/09 14:11:33;;;;;;;19.30;8.13;;;;;;;;;;4403181;32;316493;-90
2023/02/09 14:14:03;;;;;;;15.93;10.60;;;;;;;;;;4404086;32;317046;-91
2023/02/09 14:16:32;;;;;;;21.23;11.67;;;;;;;;;;4391360;32;405925;-90
2023/02/09 14:19:00;;;;;;;18.93;11.30;;;;;;;;;;4403689;32;318397;-90
2023/02/09 14:21:31;;;;;;;27.43;15.10;;;;;;;;;;4391781;32;411724;-91
2023/02/09 14:24:16;;;;;;;24.30;13.73;;;;;;;;;;4403054;32;317652;-90
2023/02/09 14:26:47;;;;;;;24.30;11.73;;;;;;;;;;4391337;32;416176;-90
2023/02/09 14:29:17;;;;;;;23.90;11.57;;;;;;;;;;4387058;32;317729;-92
2023/02/09 14:31:48;;;;;;;24.63;13.97;;;;;;;;;;4404128;32;317499;-91